Time;durP1;ratioP1;P1;durP2;ratioP2;P2;SDS_P1;SDS_P2;PMS_P1;PMS_P2;Temp;Humidity;BMP_temperature;BMP_pressure;BME280_temperature;BME280_humidity;BME280_pressure;Samples;Min_cycle;Max_cycle;Signal;HPM_P1;HPM_P2
2021/07/08 00:00:41;;;;;;;8.20;4.15;;;;;;;13.94;81.62;102014.66;5052262;28;20159;-81
2021/07/08 00:03:07;;;;;;;5.40;4.38;;;;;;;13.90;81.67;102012.78;5040642;28;20057;-81
2021/07/08 00:05:36;;;;;;;8.80;4.57;;;;;;;13.85;82.25;102011.78;5028408;28;20038;-81
2021/07/08 00:08:02;;;;;;;6.32;4.75;;;;;;;13.79;82.34;102016.09;5043299;28;20032;-81
2021/07/08 00:10:35;;;;;;;8.48;4.15;;;;;;;13.76;82.27;102023.97;5029184;28;20030;-79
2021/07/08 00:13:22;;;;;;;9.70;4.70;;;;;;;13.75;82.25;102019.53;5035468;28;20231;-79
2021/07/08 00:15:48;;;;;;;8.40;4.30;;;;;;;13.72;82.54;102024.75;5028444;28;20376;-79
2021/07/08 00:18:34;;;;;;;6.10;4.03;;;;;;;13.72;82.47;102030.03;5030109;28;20030;-80
2021/07/08 00:20:59;;;;;;;5.20;4.10;;;;;;;13.66;82.51;102024.63;5011127;28;20036;-80
2021/07/08 00:23:25;;;;;;;5.40;4.13;;;;;;;13.59;83.30;102022.69;5017178;28;20116;-82
2021/07/08 00:25:53;;;;;;;8.40;3.85;;;;;;;13.58;82.99;102023.53;5027690;28;20037;-79
2021/07/08 00:28:19;;;;;;;9.02;5.10;;;;;;;13.55;83.27;102021.75;5028991;28;20041;-81
2021/07/08 00:31:03;;;;;;;7.78;4.70;;;;;;;13.51;83.32;102014.59;5025613;28;20486;-79
2021/07/08 00:33:49;;;;;;;6.95;4.63;;;;;;;13.48;83.34;102026.00;5028572;28;20480;-81
2021/07/08 00:36:15;;;;;;;7.82;4.72;;;;;;;13.47;83.58;102018.03;5031624;28;20087;-80
2021/07/08 00:38:40;;;;;;;8.23;4.57;;;;;;;13.43;83.79;102016.13;5032806;28;20445;-79
2021/07/08 00:41:06;;;;;;;7.55;4.55;;;;;;;13.43;83.47;102022.34;5031795;28;20113;-82
2021/07/08 00:43:31;;;;;;;8.40;4.53;;;;;;;13.40;83.49;102022.28;5025080;28;20088;-81
2021/07/08 00:45:58;;;;;;;9.23;4.75;;;;;;;13.39;83.61;102023.13;5030039;28;20030;-83
2021/07/08 00:48:44;;;;;;;7.13;5.13;;;;;;;13.38;83.76;102023.09;5021794;28;20079;-81
2021/07/08 00:51:09;;;;;;;9.20;4.75;;;;;;;13.39;83.83;102020.47;5031346;28;20041;-83
2021/07/08 00:53:35;;;;;;;10.38;4.72;;;;;;;13.38;83.81;102021.31;5027217;28;20033;-81
2021/07/08 00:56:03;;;;;;;9.30;5.00;;;;;;;13.34;84.15;102027.38;5027030;28;20040;-80
2021/07/08 00:59:20;;;;;;;13.75;4.70;;;;;;;13.30;83.99;102030.78;5035879;28;20497;-82
2021/07/08 01:01:47;;;;;;;8.57;5.03;;;;;;;13.21;84.40;102031.47;5033911;28;20042;-80
2021/07/08 01:04:15;;;;;;;8.55;5.13;;;;;;;13.18;84.66;102035.78;5031031;28;20120;-82
2021/07/08 01:06:44;;;;;;;6.93;4.60;;;;;;;13.14;84.72;102033.06;5026001;28;20039;-80
2021/07/08 01:09:12;;;;;;;8.60;4.80;;;;;;;13.10;85.00;102033.84;5027391;28;20039;-80
2021/07/08 01:11:57;;;;;;;9.00;5.50;;;;;;;13.07;85.69;102043.44;5027098;28;20038;-80
2021/07/08 01:14:22;;;;;;;9.90;5.60;;;;;;;13.08;85.42;102038.19;5028849;28;20028;-82
2021/07/08 01:16:48;;;;;;;9.38;5.80;;;;;;;13.12;85.57;102047.97;5025068;28;20108;-80
2021/07/08 01:19:13;;;;;;;13.02;5.20;;;;;;;13.16;85.71;102047.19;5013094;28;20056;-80
2021/07/08 01:21:39;;;;;;;7.95;5.15;;;;;;;13.24;85.86;102043.84;5026851;28;20457;-82
2021/07/08 01:24:06;;;;;;;11.48;5.90;;;;;;;13.33;85.82;102046.72;5030642;28;20029;-83
2021/07/08 01:26:33;;;;;;;10.82;5.25;;;;;;;13.43;86.05;102047.88;5026817;28;20033;-80
2021/07/08 01:28:59;;;;;;;10.55;5.28;;;;;;;13.51;86.11;102051.63;5031495;28;20030;-81
2021/07/08 01:31:25;;;;;;;10.15;5.50;;;;;;;13.59;85.83;102055.34;5028270;28;20033;-81
2021/07/08 01:33:52;;;;;;;11.23;5.75;;;;;;;13.64;85.75;102047.50;5025135;28;20077;-81
2021/07/08 01:36:20;;;;;;;8.60;5.57;;;;;;;13.72;85.75;102050.31;5028045;28;20118;-82
2021/07/08 01:39:06;;;;;;;8.27;5.22;;;;;;;13.76;85.70;102058.34;5025632;28;20038;-82
2021/07/08 01:41:34;;;;;;;18.90;5.60;;;;;;;13.80;85.10;102049.63;5026671;28;20415;-80
2021/07/08 01:44:00;;;;;;;10.48;5.75;;;;;;;13.85;85.22;102044.47;5026256;28;20085;-83
2021/07/08 01:46:27;;;;;;;8.88;5.13;;;;;;;13.89;85.38;102048.97;5028197;28;20030;-81
2021/07/08 01:48:54;;;;;;;10.00;5.53;;;;;;;13.91;85.24;102041.03;5028076;28;20053;-80
2021/07/08 01:51:23;;;;;;;9.00;5.22;;;;;;;13.92;85.16;102037.56;5029858;28;20033;-83
2021/07/08 01:53:48;;;;;;;11.30;5.97;;;;;;;13.92;84.66;102045.50;5031732;28;20026;-82
2021/07/08 01:56:14;;;;;;;11.70;5.88;;;;;;;13.89;84.80;102038.38;5028019;28;20185;-80
2021/07/08 01:58:39;;;;;;;8.85;5.70;;;;;;;13.88;84.73;102031.28;5013569;28;20384;-83
2021/07/08 02:01:05;;;;;;;6.70;5.18;;;;;;;13.89;84.65;102043.66;5028823;28;20076;-81
2021/07/08 02:03:51;;;;;;;9.95;5.82;;;;;;;13.89;85.07;102035.72;5030037;28;20592;-82
2021/07/08 02:06:36;;;;;;;13.82;6.25;;;;;;;13.91;84.89;102030.47;5025016;28;20033;-80
2021/07/08 02:09:05;;;;;;;9.35;5.85;;;;;;;13.92;85.05;102026.97;5041767;28;20171;-82
2021/07/08 02:11:31;;;;;;;12.48;6.10;;;;;;;13.94;85.09;102030.53;5032284;28;20053;-82
2021/07/08 02:13:57;;;;;;;11.85;5.85;;;;;;;13.95;85.01;102024.38;5017230;28;20104;-81
2021/07/08 02:16:23;;;;;;;13.00;6.25;;;;;;;13.98;84.74;102028.00;5029061;28;20060;-81
2021/07/08 02:19:08;;;;;;;9.27;5.60;;;;;;;14.02;84.85;102031.56;5027218;28;20033;-83
2021/07/08 02:21:34;;;;;;;11.45;5.82;;;;;;;14.05;84.83;102029.00;5026944;28;20025;-81
2021/07/08 02:24:19;;;;;;;10.88;5.53;;;;;;;14.12;85.21;102030.94;5030351;28;20029;-80
2021/07/08 02:26:45;;;;;;;10.55;5.95;;;;;;;14.15;85.63;102024.81;5027271;28;20053;-80
2021/07/08 02:29:11;;;;;;;9.57;4.97;;;;;;;14.19;85.29;102026.66;5027908;28;20420;-81
2021/07/08 02:31:56;;;;;;;11.20;5.65;;;;;;;14.21;85.19;102029.31;5028201;28;20025;-81
2021/07/08 02:34:22;;;;;;;8.73;5.55;;;;;;;14.25;84.94;102025.88;5028530;28;20025;-81
2021/07/08 02:36:48;;;;;;;13.40;6.43;;;;;;;14.29;85.17;102027.72;5030797;28;20025;-83
2021/07/08 02:39:16;;;;;;;13.85;6.00;;;;;;;14.31;85.37;102032.19;5029878;28;20068;-83
2021/07/08 02:41:42;;;;;;;10.40;6.00;;;;;;;14.31;85.22;102032.19;5025852;28;20108;-83
2021/07/08 02:44:07;;;;;;;8.82;5.75;;;;;;;14.29;84.89;102022.44;5030214;28;20121;-80
2021/07/08 02:46:33;;;;;;;11.35;6.07;;;;;;;14.26;84.75;102032.97;5023981;28;20125;-82
2021/07/08 02:48:58;;;;;;;13.52;5.68;;;;;;;14.22;84.81;102031.13;5023498;28;20021;-80
2021/07/08 02:51:44;;;;;;;12.40;5.70;;;;;;;14.12;85.21;102025.63;5025452;28;20040;-81
2021/07/08 02:54:09;;;;;;;8.65;5.38;;;;;;;14.04;84.97;102016.63;5030038;28;20037;-83
2021/07/08 02:56:35;;;;;;;11.13;6.07;;;;;;;13.96;85.17;102020.88;5030108;28;20518;-80
2021/07/08 02:59:21;;;;;;;10.45;6.15;;;;;;;13.88;85.33;102019.81;5031077;28;20391;-81
2021/07/08 03:01:49;;;;;;;10.75;6.07;;;;;;;13.80;85.34;102023.16;5029688;28;20041;-83
2021/07/08 03:04:15;;;;;;;12.85;5.80;;;;;;;13.73;85.27;102021.25;5050430;28;20024;-82
2021/07/08 03:07:00;;;;;;;13.13;5.95;;;;;;;13.66;85.85;102022.88;5051795;28;20041;-81
2021/07/08 03:09:35;;;;;;;10.35;6.43;;;;;;;13.63;85.69;102029.81;5054484;28;20058;-82
2021/07/08 03:12:01;;;;;;;11.73;6.32;;;;;;;13.61;86.05;102031.56;5054520;28;21048;-81
2021/07/08 03:14:27;;;;;;;11.43;6.53;;;;;;;13.55;86.29;102020.81;5049440;28;20497;-83
2021/07/08 03:16:52;;;;;;;13.38;6.90;;;;;;;13.52;86.52;102020.75;5051431;28;20108;-82
2021/07/08 03:19:26;;;;;;;11.55;6.85;;;;;;;13.51;86.46;102021.63;5050985;28;20048;-82
2021/07/08 03:21:54;;;;;;;9.60;6.53;;;;;;;13.54;86.87;102026.97;5052623;28;20132;-82
2021/07/08 03:24:23;;;;;;;17.27;7.38;;;;;;;13.57;87.07;102035.00;5049709;28;20032;-81
2021/07/08 03:26:49;;;;;;;12.52;6.93;;;;;;;13.62;87.44;102028.06;5050380;28;20025;-81
2021/07/08 03:29:15;;;;;;;10.38;6.85;;;;;;;13.67;87.69;102036.97;5049904;28;20024;-82
2021/07/08 03:31:40;;;;;;;12.82;8.13;;;;;;;13.71;87.46;102022.06;5050087;28;20424;-82
2021/07/08 03:34:08;;;;;;;14.75;7.10;;;;;;;13.74;87.45;102023.06;5050221;28;20113;-81
2021/07/08 03:36:54;;;;;;;10.07;7.05;;;;;;;13.74;87.34;102028.34;5049833;28;20537;-82
2021/07/08 03:39:22;;;;;;;11.05;6.55;;;;;;;13.76;87.14;102031.91;5049555;28;20413;-79
2021/07/08 03:41:47;;;;;;;13.18;8.35;;;;;;;13.76;87.27;102036.31;5052172;28;20108;-80
2021/07/08 03:44:13;;;;;;;12.77;7.90;;;;;;;13.75;87.40;102030.09;5052635;28;20024;-81
2021/07/08 03:46:41;;;;;;;17.02;7.63;;;;;;;13.79;87.50;102037.25;5049958;28;20418;-83
2021/07/08 03:49:07;;;;;;;11.20;7.22;;;;;;;13.85;87.56;102023.28;5046851;28;20093;-82
2021/07/08 03:51:42;;;;;;;13.05;8.02;;;;;;;13.92;87.51;102026.97;5051653;28;20116;-80
2021/07/08 03:54:07;;;;;;;11.35;7.03;;;;;;;13.99;87.19;102039.47;5050728;28;20567;-82
2021/07/08 03:56:38;;;;;;;10.85;8.10;;;;;;;14.05;87.32;102039.56;5049083;28;20111;-81
2021/07/08 03:59:03;;;;;;;10.45;7.07;;;;;;;14.13;87.02;102045.03;5050435;28;20052;-82
2021/07/08 04:01:29;;;;;;;15.18;7.38;;;;;;;14.20;86.99;102051.34;5049963;28;20067;-82
2021/07/08 04:03:55;;;;;;;14.90;7.78;;;;;;;14.30;86.23;102050.69;5029846;28;20129;-81
2021/07/08 04:06:23;;;;;;;10.35;7.28;;;;;;;14.39;86.30;102056.19;5032024;28;20034;-81
2021/07/08 04:08:52;;;;;;;11.50;6.75;;;;;;;14.46;85.87;102052.78;5030547;28;20025;-82
2021/07/08 04:11:18;;;;;;;14.23;7.22;;;;;;;14.52;85.75;102057.31;5012024;28;20022;-80
2021/07/08 04:13:46;;;;;;;9.55;6.63;;;;;;;14.58;85.72;102051.25;5030999;28;20039;-82
2021/07/08 04:16:35;;;;;;;10.02;6.72;;;;;;;14.66;85.94;102045.28;5008931;28;20061;-82
2021/07/08 04:19:01;;;;;;;14.20;6.97;;;;;;;14.72;85.77;102043.56;5026847;28;20052;-81
2021/07/08 04:21:26;;;;;;;10.40;6.93;;;;;;;14.77;86.19;102048.13;5030353;28;20029;-83
2021/07/08 04:23:52;;;;;;;12.70;7.07;;;;;;;14.83;85.32;102042.91;5029614;28;20184;-82
2021/07/08 04:26:18;;;;;;;14.18;7.32;;;;;;;14.90;84.99;102038.63;5012148;28;20391;-82
2021/07/08 04:29:04;;;;;;;17.30;6.68;;;;;;;14.99;84.46;102048.50;5028422;28;20037;-83
2021/07/08 04:31:32;;;;;;;13.45;6.60;;;;;;;15.07;84.06;102049.53;5030281;28;20171;-82
2021/07/08 04:34:00;;;;;;;12.50;6.95;;;;;;;15.15;84.34;102041.69;5033010;28;20055;-84
2021/07/08 04:36:28;;;;;;;12.02;6.82;;;;;;;15.23;83.95;102042.72;5032523;28;20034;-83
2021/07/08 04:38:54;;;;;;;15.30;6.70;;;;;;;15.32;83.64;102053.47;5035542;28;20032;-82
2021/07/08 04:41:39;;;;;;;15.05;7.05;;;;;;;15.42;83.03;102050.97;5033255;28;20037;-83
2021/07/08 04:44:28;;;;;;;14.48;7.25;;;;;;;15.50;82.76;102052.91;5029641;28;20037;-84
2021/07/08 04:47:00;;;;;;;18.08;7.25;;;;;;;15.56;82.47;102056.50;5028314;28;20036;-83
2021/07/08 04:49:26;;;;;;;11.77;6.65;;;;;;;15.57;83.39;102059.19;5033258;28;20025;-81
2021/07/08 04:52:11;;;;;;;10.02;6.47;;;;;;;15.59;83.42;102065.41;5030430;28;20030;-82
2021/07/08 04:54:37;;;;;;;17.27;8.55;;;;;;;15.58;82.84;102068.03;5033073;28;20041;-83
2021/07/08 04:57:23;;;;;;;13.30;8.02;;;;;;;15.59;82.78;102067.19;5012499;28;20030;-82
2021/07/08 04:59:51;;;;;;;16.48;8.52;;;;;;;15.58;82.50;102066.25;5030319;28;20041;-81
2021/07/08 05:02:20;;;;;;;16.90;8.43;;;;;;;15.62;82.16;102069.88;5039600;28;20087;-81
2021/07/08 05:04:46;;;;;;;14.82;8.68;;;;;;;15.64;83.01;102070.75;5050700;28;20052;-81
2021/07/08 05:07:12;;;;;;;11.82;7.22;;;;;;;15.65;83.20;102068.16;5051902;28;20032;-85
2021/07/08 05:09:38;;;;;;;12.85;9.02;;;;;;;15.71;83.47;102072.66;5051229;28;20063;-81
2021/07/08 05:12:10;;;;;;;14.13;8.05;;;;;;;15.76;83.71;102072.72;5050891;28;20112;-80
2021/07/08 05:14:36;;;;;;;15.00;7.95;;;;;;;15.82;84.22;102086.13;5049926;28;20040;-80
2021/07/08 05:17:23;;;;;;;18.75;9.05;;;;;;;15.85;84.68;102087.03;5049868;28;20246;-83
2021/07/08 05:19:48;;;;;;;13.48;7.93;;;;;;;15.92;83.80;102082.72;5049268;28;20056;-80
2021/07/08 05:22:19;;;;;;;15.45;7.85;;;;;;;15.97;83.42;102089.00;5051228;28;20021;-80
2021/07/08 05:24:45;;;;;;;12.85;7.35;;;;;;;16.01;82.72;102088.16;5051279;28;20040;-81
2021/07/08 05:27:15;;;;;;;17.40;7.63;;;;;;;16.07;83.35;102086.47;5051003;28;20033;-75
2021/07/08 05:30:01;;;;;;;11.95;7.18;;;;;;;16.15;82.88;102079.50;5047083;28;20033;-81
2021/07/08 05:32:27;;;;;;;10.27;6.82;;;;;;;16.21;82.57;102089.31;5048355;28;20032;-81
2021/07/08 05:34:52;;;;;;;14.30;7.90;;;;;;;16.29;82.42;102099.19;5032214;28;20240;-82
2021/07/08 05:37:18;;;;;;;11.30;7.45;;;;;;;16.37;82.91;102107.22;5051011;28;20104;-81
2021/07/08 05:39:44;;;;;;;11.50;6.70;;;;;;;16.48;82.77;102113.59;5052354;28;20029;-81
2021/07/08 05:42:09;;;;;;;15.00;6.90;;;;;;;16.61;82.18;102121.69;5050996;28;20095;-82
2021/07/08 05:44:35;;;;;;;12.90;6.97;;;;;;;16.69;81.04;102120.91;5051038;28;20495;-80
2021/07/08 05:51:16;;;;;;;;;;;;;;;;;;;;;
2021/07/08 05:53:53;;;;;;;15.80;5.85;;;;;;;17.29;78.00;102127.78;5048397;28;20543;-83
2021/07/08 06:03:41;;;;;;;11.20;6.47;;;;;;;17.17;76.62;102129.44;5025642;28;20053;-82
2021/07/08 06:06:29;;;;;;;11.45;5.95;;;;;;;16.93;77.09;102131.84;5049632;28;20037;-81
2021/07/08 06:12:46;;;;;;;15.40;6.57;;;;;;;16.76;77.64;102142.25;4933264;29;20035;-85
2021/07/08 06:19:24;;;;;;;7.70;4.90;;;;;;;17.02;77.37;102145.22;5054093;28;20564;-85
2021/07/08 06:22:38;;;;;;;8.90;5.50;;;;;;;17.40;75.18;102143.84;5018035;28;20043;-86
2021/07/08 06:26:07;;;;;;;11.93;5.55;;;;;;;17.62;77.55;102151.13;5005011;28;20042;-81
2021/07/08 06:28:34;;;;;;;8.00;5.10;;;;;;;17.78;74.07;102154.78;5022938;28;20040;-82
2021/07/08 06:31:00;;;;;;;9.93;5.55;;;;;;;17.85;73.52;102159.31;5032338;28;20372;-79
2021/07/08 06:33:25;;;;;;;9.18;5.28;;;;;;;17.96;73.10;102167.41;5044731;28;20033;-79
2021/07/08 06:35:51;;;;;;;9.13;6.10;;;;;;;18.02;74.55;102164.75;5046534;28;20036;-80
2021/07/08 06:38:16;;;;;;;11.20;5.70;;;;;;;18.09;73.01;102170.16;5049321;28;20090;-80
2021/07/08 06:40:42;;;;;;;7.38;5.30;;;;;;;18.20;73.29;102169.34;5048469;28;20036;-80
2021/07/08 06:43:08;;;;;;;10.10;5.65;;;;;;;18.39;73.05;102177.41;5044706;28;20056;-81
2021/07/08 06:45:36;;;;;;;8.80;5.97;;;;;;;18.56;73.05;102171.28;5045221;28;20498;-82
2021/07/08 06:48:02;;;;;;;9.73;4.90;;;;;;;18.81;70.80;102173.16;5041458;28;20029;-81
2021/07/08 06:50:50;;;;;;;8.15;5.80;;;;;;;19.07;71.51;102175.06;5046529;28;20024;-81
2021/07/08 06:53:16;;;;;;;12.43;5.05;;;;;;;19.95;67.21;102168.94;5046101;28;20039;-81
2021/07/08 06:55:41;;;;;;;7.60;4.45;;;;;;;20.94;63.21;102176.66;5049289;28;20024;-82
2021/07/08 06:58:07;;;;;;;7.32;3.97;;;;;;;21.92;59.55;102174.19;5046953;28;20498;-81
2021/07/08 07:00:43;;;;;;;6.00;2.95;;;;;;;22.76;56.93;102176.84;5046939;28;20039;-81
2021/07/08 07:03:09;;;;;;;4.70;2.97;;;;;;;23.46;54.22;102174.97;5040469;28;20106;-82
2021/07/08 07:05:54;;;;;;;4.18;2.03;;;;;;;24.02;50.43;102174.03;5044872;28;20025;-79
2021/07/08 07:08:25;;;;;;;4.70;2.60;;;;;;;24.18;48.64;102178.19;5045159;28;20086;-81
2021/07/08 07:10:51;;;;;;;5.22;2.13;;;;;;;24.44;49.72;102171.41;5045315;28;20048;-82
2021/07/08 07:13:16;;;;;;;2.25;1.77;;;;;;;24.77;47.41;102170.78;5046909;28;20041;-82
2021/07/08 07:15:42;;;;;;;5.30;2.10;;;;;;;24.90;47.11;102164.22;5048468;28;20522;-80
2021/07/08 07:18:08;;;;;;;3.13;2.00;;;;;;;25.00;46.82;102162.19;5049403;28;20033;-82
2021/07/08 07:20:34;;;;;;;4.95;2.72;;;;;;;24.74;48.18;102161.88;5048927;28;20037;-82
2021/07/08 07:23:06;;;;;;;3.85;2.25;;;;;;;25.00;47.60;102156.78;5047251;28;20044;-82
2021/07/08 07:25:34;;;;;;;3.92;2.33;;;;;;;24.67;47.71;102159.34;5048036;28;20106;-82
2021/07/08 07:28:00;;;;;;;3.38;2.38;;;;;;;24.75;47.64;102160.03;5046363;28;20037;-81
2021/07/08 07:30:27;;;;;;;4.50;2.20;;;;;;;24.58;48.96;102158.56;5029216;28;20035;-81
2021/07/08 07:32:57;;;;;;;4.45;2.60;;;;;;;24.56;48.71;102160.41;5042132;28;20025;-82
2021/07/08 07:35:25;;;;;;;5.20;2.25;;;;;;;24.55;46.85;102161.34;5043332;28;20040;-82
2021/07/08 07:38:13;;;;;;;5.88;2.35;;;;;;;24.56;47.31;102156.84;5026499;28;20517;-82
2021/07/08 07:41:02;;;;;;;5.20;2.13;;;;;;;24.58;47.38;102157.69;5041351;28;20371;-80
2021/07/08 07:43:27;;;;;;;4.53;2.03;;;;;;;24.63;48.29;102161.19;5040224;28;20548;-82
2021/07/08 07:45:56;;;;;;;4.53;2.35;;;;;;;24.85;47.32;102168.81;5046317;28;20112;-83
2021/07/08 07:48:21;;;;;;;6.93;2.60;;;;;;;24.61;52.03;102162.09;5044253;28;20029;-82
2021/07/08 07:50:50;;;;;;;8.40;2.67;;;;;;;24.62;48.15;102172.00;5047648;28;20039;-83
2021/07/08 07:53:15;;;;;;;5.25;2.60;;;;;;;24.65;47.56;102162.06;5040576;28;20053;-82
2021/07/08 07:55:50;;;;;;;2.42;1.88;;;;;;;24.48;47.64;102164.19;5046700;28;20028;-82
2021/07/08 07:58:19;;;;;;;5.10;2.60;;;;;;;24.34;48.21;102172.53;5042932;28;20127;-82
2021/07/08 08:00:46;;;;;;;5.57;3.65;;;;;;;24.22;50.09;102168.28;5029576;28;20033;-82
2021/07/08 08:03:16;;;;;;;9.57;3.00;;;;;;;24.03;51.64;102173.13;5046604;28;20392;-81
2021/07/08 08:05:49;;;;;;;5.70;2.70;;;;;;;23.97;49.90;102165.16;5052870;28;20113;-82
2021/07/08 08:08:27;;;;;;;6.65;2.58;;;;;;;23.98;50.07;102156.19;5050049;28;20032;-82
2021/07/08 08:11:14;;;;;;;4.43;2.55;;;;;;;23.48;50.77;102164.19;5046240;28;20029;-82
2021/07/08 08:13:39;;;;;;;5.40;3.17;;;;;;;23.58;52.98;102163.13;5050968;28;20056;-82
2021/07/08 08:16:07;;;;;;;10.18;2.92;;;;;;;23.32;52.44;102168.91;5051779;28;20187;-82
2021/07/08 08:18:52;;;;;;;6.45;2.95;;;;;;;23.26;51.95;102169.91;5061092;28;20044;-82
2021/07/08 08:21:18;;;;;;;6.57;2.78;;;;;;;23.19;52.12;102174.47;5054024;28;20071;-83
2021/07/08 08:23:43;;;;;;;8.48;2.78;;;;;;;22.80;53.34;102163.34;5055891;28;20028;-81
2021/07/08 08:26:12;;;;;;;6.28;2.60;;;;;;;22.87;53.66;102162.38;5053208;28;20041;-81
2021/07/08 08:28:40;;;;;;;7.63;3.00;;;;;;;23.21;52.75;102166.38;5048986;28;20524;-82
2021/07/08 08:31:06;;;;;;;5.53;2.83;;;;;;;23.19;52.68;102161.03;5052990;28;20112;-81
2021/07/08 08:33:31;;;;;;;5.60;3.08;;;;;;;23.05;52.45;102168.41;5042722;28;20551;-83
2021/07/08 08:35:59;;;;;;;3.97;2.65;;;;;;;22.67;53.27;102180.56;5026786;28;20487;-81
2021/07/08 08:38:27;;;;;;;7.55;3.00;;;;;;;22.24;56.13;102177.41;5045174;28;20028;-82
2021/07/08 08:40:56;;;;;;;3.92;2.88;;;;;;;22.30;54.97;102188.97;5044910;28;20071;-83
2021/07/08 08:43:23;;;;;;;7.15;3.42;;;;;;;22.11;54.72;102183.84;5050173;28;20029;-82
2021/07/08 08:45:52;;;;;;;7.60;3.10;;;;;;;22.17;54.94;102181.06;5040867;28;20099;-82
2021/07/08 08:48:18;;;;;;;4.15;2.83;;;;;;;22.19;56.08;102184.66;5042043;28;20033;-80
2021/07/08 08:51:06;;;;;;;5.30;3.25;;;;;;;22.55;54.79;102178.91;5037670;28;20029;-81
2021/07/08 08:53:32;;;;;;;4.65;3.15;;;;;;;23.20;56.31;102175.38;5047525;28;20038;-82
2021/07/08 08:55:58;;;;;;;4.05;2.80;;;;;;;23.71;52.81;102169.16;5029899;28;20040;-81
2021/07/08 08:58:24;;;;;;;8.13;3.38;;;;;;;23.41;53.69;102160.72;5049517;28;20112;-80
2021/07/08 09:01:10;;;;;;;6.43;3.05;;;;;;;23.54;52.03;102158.72;5047874;28;20040;-81
2021/07/08 09:03:35;;;;;;;11.02;3.17;;;;;;;23.78;52.42;102149.34;5047182;28;20041;-82
2021/07/08 09:06:07;;;;;;;5.50;2.85;;;;;;;24.17;51.38;102144.19;5052736;28;20121;-81
2021/07/08 09:08:38;;;;;;;6.28;3.13;;;;;;;24.03;50.95;102149.81;5049080;28;20037;-82
2021/07/08 09:11:21;;;;;;;4.45;2.75;;;;;;;23.55;53.26;102166.75;5046041;28;20056;-83
2021/07/08 09:14:07;;;;;;;7.38;3.63;;;;;;;23.28;53.17;102167.19;5035865;28;20037;-83
2021/07/08 09:16:41;;;;;;;4.53;3.17;;;;;;;23.26;53.42;102169.03;5048486;28;20474;-83
2021/07/08 09:19:29;;;;;;;5.25;3.03;;;;;;;22.99;53.32;102171.16;5044693;28;20051;-83
2021/07/08 09:22:26;;;;;;;5.95;3.00;;;;;;;22.61;52.96;102177.94;5045226;28;20037;-82
2021/07/08 09:24:52;;;;;;;4.00;2.70;;;;;;;22.71;54.61;102180.47;5052183;28;20312;-81
2021/07/08 09:27:17;;;;;;;5.25;2.47;;;;;;;23.43;52.32;102175.03;5048540;28;20112;-80
2021/07/08 09:29:49;;;;;;;4.28;2.50;;;;;;;24.26;51.08;102174.50;5034935;28;20088;-82
2021/07/08 09:32:17;;;;;;;4.95;2.60;;;;;;;24.81;48.11;102165.31;5048749;28;20052;-82
2021/07/08 09:35:23;;;;;;;9.98;3.10;;;;;;;25.75;49.33;102168.47;5049716;28;20048;-82
2021/07/08 09:37:48;;;;;;;7.13;2.97;;;;;;;26.03;48.80;102169.56;5049649;28;20037;-82
2021/07/08 09:40:34;;;;;;;5.18;2.83;;;;;;;25.01;48.33;102169.34;5049272;28;20116;-82
2021/07/08 09:43:02;;;;;;;8.30;3.22;;;;;;;24.64;49.47;102167.47;5048613;28;20025;-82
2021/07/08 09:45:28;;;;;;;9.38;3.25;;;;;;;24.13;52.24;102173.84;5048200;28;20017;-82
2021/07/08 09:48:19;;;;;;;4.75;3.10;;;;;;;24.22;51.11;102174.53;5050791;28;20033;-81
2021/07/08 09:50:45;;;;;;;4.88;3.05;;;;;;;24.66;50.90;102176.41;5049256;28;20033;-82
2021/07/08 09:53:23;;;;;;;6.47;3.20;;;;;;;24.98;49.33;102180.19;5049358;28;20037;-82
2021/07/08 09:56:03;;;;;;;6.15;3.65;;;;;;;24.52;49.07;102177.53;5046682;28;20060;-80
2021/07/08 09:58:58;;;;;;;7.63;3.35;;;;;;;24.11;51.04;102187.31;5047349;28;20039;-84
2021/07/08 10:01:25;;;;;;;7.57;3.53;;;;;;;24.01;49.80;102191.97;5058296;28;20238;-81
2021/07/08 10:03:51;;;;;;;4.80;3.03;;;;;;;23.99;51.86;102191.09;5032748;28;20052;-81
2021/07/08 10:06:18;;;;;;;6.80;3.00;;;;;;;24.54;49.10;102196.38;5046444;28;20040;-80
2021/07/08 10:09:00;;;;;;;9.73;3.63;;;;;;;25.13;48.46;102196.00;5054328;28;20478;-81
2021/07/08 10:12:05;;;;;;;3.40;2.47;;;;;;;26.14;46.09;102199.84;5033923;28;20025;-79
2021/07/08 10:14:31;;;;;;;5.43;2.92;;;;;;;26.51;45.97;102211.44;5050172;28;20170;-80
2021/07/08 10:16:57;;;;;;;6.97;3.33;;;;;;;26.98;46.50;102210.97;5049337;28;21605;-81
2021/07/08 10:19:24;;;;;;;5.47;2.92;;;;;;;26.83;43.15;102213.22;5041879;28;20432;-80
2021/07/08 10:22:11;;;;;;;6.75;3.17;;;;;;;26.22;45.22;102221.19;5031309;28;20378;-80
2021/07/08 10:24:37;;;;;;;5.35;3.38;;;;;;;25.27;45.95;102224.44;5046350;28;20528;-80
2021/07/08 10:27:03;;;;;;;5.38;3.42;;;;;;;24.03;50.11;102224.22;5049470;28;20025;-81
2021/07/08 10:29:30;;;;;;;6.57;3.20;;;;;;;23.75;50.61;102221.97;5049216;28;20457;-81
2021/07/08 10:32:16;;;;;;;5.35;2.72;;;;;;;23.55;50.87;102225.00;5048186;28;20021;-81
2021/07/08 10:35:06;;;;;;;8.75;4.35;;;;;;;23.70;56.44;102240.88;5049232;28;20455;-81
2021/07/08 10:37:33;;;;;;;9.60;4.70;;;;;;;25.21;52.70;102242.50;5051139;28;20040;-80
2021/07/08 10:40:00;;;;;;;8.60;4.50;;;;;;;25.90;49.70;102240.00;5042735;28;20036;-81
2021/07/08 10:42:46;;;;;;;4.38;3.33;;;;;;;25.98;47.64;102233.50;5051518;28;20487;-82
2021/07/08 10:45:26;;;;;;;5.55;3.30;;;;;;;27.01;46.71;102227.06;5050355;28;20376;-80
2021/07/08 10:49:08;;;;;;;5.55;3.75;;;;;;;28.31;43.26;102228.25;5049479;28;20078;-80
2021/07/08 10:51:53;;;;;;;8.85;4.18;;;;;;;27.04;44.99;102227.88;5045381;28;20025;-81
2021/07/08 10:54:49;;;;;;;9.10;4.05;;;;;;;27.79;45.92;102237.22;5050765;28;20033;-79
2021/07/08 10:57:37;;;;;;;10.43;4.07;;;;;;;29.04;43.06;102224.63;5049653;28;20037;-78
2021/07/08 11:00:24;;;;;;;6.63;2.80;;;;;;;30.23;38.86;102227.84;5042111;28;20024;-81
2021/07/08 11:02:51;;;;;;;5.05;2.30;;;;;;;30.17;36.87;102225.41;5038857;28;20468;-82
2021/07/08 11:05:54;;;;;;;6.53;2.60;;;;;;;29.52;36.41;102227.25;5047260;28;20067;-81
2021/07/08 11:08:45;;;;;;;6.07;3.10;;;;;;;27.27;42.36;102207.34;5045463;28;20044;-80
2021/07/08 11:11:20;;;;;;;9.45;3.05;;;;;;;26.06;44.35;102201.88;5049056;28;20032;-81
2021/07/08 11:14:14;;;;;;;5.78;3.50;;;;;;;25.06;47.77;102195.25;5051776;28;20120;-81
2021/07/08 11:16:45;;;;;;;5.65;3.40;;;;;;;25.57;48.10;102196.78;5048183;28;20029;-81
2021/07/08 11:19:16;;;;;;;12.73;3.13;;;;;;;26.53;43.67;102193.34;5050227;28;20142;-80
2021/07/08 11:21:55;;;;;;;6.97;3.00;;;;;;;26.73;43.39;102200.91;5039549;28;20029;-82
2021/07/08 11:24:25;;;;;;;5.82;2.85;;;;;;;27.34;41.53;102199.94;5046102;28;20040;-82
2021/07/08 11:27:13;;;;;;;3.13;2.10;;;;;;;26.88;42.41;102205.84;5047731;28;20025;-81
2021/07/08 11:30:13;;;;;;;5.13;2.30;;;;;;;27.32;41.37;102193.69;5046953;28;20041;-80
2021/07/08 11:33:01;;;;;;;4.70;2.40;;;;;;;27.72;41.86;102192.41;5051060;28;20033;-82
2021/07/08 11:35:34;;;;;;;4.82;2.65;;;;;;;26.76;42.23;102184.59;5047409;28;20048;-80
2021/07/08 11:38:06;;;;;;;5.40;3.33;;;;;;;25.41;46.05;102184.63;5045342;28;20025;-81
2021/07/08 11:40:52;;;;;;;5.53;3.20;;;;;;;26.06;46.92;102188.38;5048621;28;20454;-80
2021/07/08 11:43:17;;;;;;;4.97;2.42;;;;;;;26.85;43.87;102188.88;5054522;28;20048;-81
2021/07/08 11:45:44;;;;;;;3.88;2.20;;;;;;;27.36;41.47;102184.53;5054119;28;20036;-80
2021/07/08 11:48:28;;;;;;;3.65;2.10;;;;;;;27.76;40.25;102177.84;5055562;28;20427;-82
2021/07/08 11:50:54;;;;;;;5.20;2.60;;;;;;;27.94;43.31;102181.69;5050085;28;20041;-81
2021/07/08 11:53:20;;;;;;;4.53;2.80;;;;;;;27.83;39.34;102179.38;5053088;28;20155;-81
2021/07/08 11:56:02;;;;;;;3.60;2.33;;;;;;;27.53;41.63;102193.00;5051327;28;20392;-81
2021/07/08 11:58:36;;;;;;;6.28;2.53;;;;;;;26.71;41.81;102200.06;5051113;28;20072;-81
2021/07/08 12:01:24;;;;;;;4.60;2.63;;;;;;;26.27;42.23;102192.28;5052882;28;20105;-81
2021/07/08 12:04:29;;;;;;;7.32;2.67;;;;;;;26.51;42.41;102189.84;5052990;28;20060;-82
2021/07/08 12:06:55;;;;;;;5.78;2.80;;;;;;;26.68;47.51;102200.13;5050263;28;20127;-81
2021/07/08 12:09:22;;;;;;;3.63;2.53;;;;;;;26.81;41.95;102192.59;5054331;28;20530;-83